createdAt,value
2023-04-09T00:00:31.148Z,33.00
2023-04-09T00:04:29.095Z,40.00
2023-04-09T00:08:36.857Z,48.20
2023-04-09T00:12:44.842Z,45.60
2023-04-09T00:16:46.763Z,47.30
2023-04-09T00:20:54.929Z,51.00
2023-04-09T00:25:04.142Z,37.40
2023-04-09T00:29:12.985Z,45.00
2023-04-09T00:33:07.629Z,78.10
2023-04-09T00:37:02.515Z,52.20
2023-04-09T00:41:00.671Z,52.00
2023-04-09T00:44:51.404Z,46.50
2023-04-09T00:48:52.091Z,35.00
2023-04-09T00:52:50.308Z,40.50
2023-04-09T00:56:58.542Z,45.80
2023-04-09T01:01:06.830Z,33.60
2023-04-09T01:05:14.982Z,32.90
2023-04-09T01:09:28.948Z,31.20
2023-04-09T01:13:40.132Z,24.70
2023-04-09T01:17:48.322Z,26.00
2023-04-09T01:21:52.150Z,25.80
2023-04-09T01:26:24.720Z,31.90
2023-04-09T01:30:25.744Z,31.90
2023-04-09T01:34:33.827Z,38.80
2023-04-09T01:38:33.327Z,34.70
2023-04-09T01:42:41.023Z,37.10
2023-04-09T01:46:49.152Z,38.10
2023-04-09T01:50:57.324Z,35.10
2023-04-09T01:55:05.497Z,34.30
2023-04-09T01:59:06.404Z,25.60
2023-04-09T02:03:19.465Z,31.60
2023-04-09T02:07:40.031Z,31.10
2023-04-09T02:11:46.642Z,32.60
2023-04-09T02:15:54.786Z,38.20
2023-04-09T02:20:02.978Z,22.70
2023-04-09T02:24:04.301Z,23.10
2023-04-09T02:28:12.541Z,22.50
2023-04-09T02:32:20.694Z,25.60
2023-04-09T02:36:28.768Z,23.20
2023-04-09T02:40:29.683Z,26.50
2023-04-09T02:44:39.843Z,20.70
2023-04-09T02:48:48.947Z,22.60
2023-04-09T02:52:47.014Z,67.50
2023-04-09T02:56:55.231Z,35.50
2023-04-09T03:01:03.359Z,31.50
2023-04-09T03:05:11.472Z,25.30
2023-04-09T03:09:20.619Z,26.90
2023-04-09T03:13:18.862Z,28.40
2023-04-09T03:17:27.184Z,43.20
2023-04-09T03:21:11.630Z,33.30
2023-04-09T03:25:04.552Z,34.90
2023-04-09T03:28:51.956Z,30.50
2023-04-09T03:33:00.348Z,36.10
2023-04-09T03:37:08.495Z,57.50
2023-04-09T03:41:16.305Z,37.20
2023-04-09T03:45:14.231Z,29.90
2023-04-09T03:49:23.435Z,30.30
2023-04-09T03:53:32.662Z,35.90
2023-04-09T03:57:40.796Z,30.60
2023-04-09T04:01:48.929Z,26.20
2023-04-09T04:05:57.132Z,30.60
2023-04-09T04:10:05.237Z,33.10
2023-04-09T04:14:14.420Z,22.30
2023-04-09T04:18:23.623Z,29.00
2023-04-09T04:22:14.416Z,23.60
2023-04-09T04:26:22.566Z,36.30
2023-04-09T04:30:00.571Z,22.90
2023-04-09T04:33:41.511Z,20.10
2023-04-09T04:37:12.903Z,18.00
2023-04-09T04:41:21.042Z,22.30
2023-04-09T04:45:28.999Z,24.60
2023-04-09T04:49:05.858Z,22.40
2023-04-09T04:52:17.754Z,28.90
2023-04-09T04:55:56.695Z,18.90
2023-04-09T04:59:29.180Z,21.30
2023-04-09T05:02:58.921Z,27.00
2023-04-09T05:07:07.436Z,31.20
2023-04-09T05:10:49.155Z,25.10
2023-04-09T05:14:16.056Z,24.80
2023-04-09T05:18:11.543Z,43.60
2023-04-09T05:21:27.619Z,21.60
2023-04-09T05:25:27.053Z,19.10
2023-04-09T05:29:28.155Z,20.40
2023-04-09T05:33:20.152Z,37.10
2023-04-09T05:37:21.870Z,30.00
2023-04-09T05:41:04.397Z,23.00
2023-04-09T05:44:55.519Z,28.10
2023-04-09T05:48:43.699Z,33.00
2023-04-09T05:52:36.132Z,28.00
2023-04-09T05:56:12.658Z,26.50
2023-04-09T06:00:20.751Z,29.40
2023-04-09T06:03:21.654Z,33.70
2023-04-09T06:07:29.911Z,29.80
2023-04-09T06:10:10.386Z,32.60
2023-04-09T06:13:18.863Z,34.40
2023-04-09T06:17:17.759Z,30.90
2023-04-09T06:20:11.232Z,24.60
2023-04-09T06:23:38.254Z,20.70
2023-04-09T06:26:38.799Z,15.40
2023-04-09T06:29:15.228Z,14.90
2023-04-09T06:32:53.805Z,14.90
2023-04-09T06:36:44.340Z,18.50
2023-04-09T06:39:34.699Z,21.10
2023-04-09T06:43:14.938Z,21.60
2023-04-09T06:46:42.022Z,20.60
2023-04-09T06:49:41.238Z,24.50
2023-04-09T06:52:27.511Z,23.20
2023-04-09T06:56:10.078Z,20.90
2023-04-09T06:59:06.463Z,20.30
2023-04-09T07:01:56.609Z,19.70
2023-04-09T07:04:51.306Z,19.10
2023-04-09T07:07:44.323Z,18.70
2023-04-09T07:10:37.867Z,17.10
2023-04-09T07:13:57.809Z,20.10
2023-04-09T07:17:15.485Z,22.10
2023-04-09T07:20:37.693Z,20.40
2023-04-09T07:23:46.414Z,22.00
2023-04-09T07:26:45.621Z,19.10
2023-04-09T07:30:23.867Z,20.90
2023-04-09T07:33:05.585Z,21.30
2023-04-09T07:36:21.101Z,20.50
2023-04-09T07:39:15.845Z,22.20
2023-04-09T07:41:47.410Z,24.20
2023-04-09T07:44:47.343Z,23.90
2023-04-09T07:47:23.279Z,21.30
2023-04-09T07:51:06.315Z,19.80
2023-04-09T07:54:38.175Z,19.60
2023-04-09T07:57:39.678Z,18.00
2023-04-09T08:01:03.890Z,18.20
2023-04-09T08:04:07.488Z,19.30
2023-04-09T08:07:20.627Z,19.00
2023-04-09T08:10:15.080Z,17.40
2023-04-09T08:13:46.158Z,18.60
2023-04-09T08:17:06.562Z,18.90
2023-04-09T08:20:39.248Z,19.40
2023-04-09T08:24:29.043Z,18.00
2023-04-09T08:27:12.220Z,17.30
2023-04-09T08:29:59.464Z,18.30
2023-04-09T08:33:11.562Z,17.60
2023-04-09T08:35:55.703Z,17.50
2023-04-09T08:39:00.895Z,17.30
2023-04-09T08:42:11.709Z,18.70
2023-04-09T08:45:26.969Z,18.30
2023-04-09T08:48:14.678Z,19.30
2023-04-09T08:51:43.906Z,18.20
2023-04-09T08:55:51.976Z,17.40
2023-04-09T08:59:31.734Z,16.70
2023-04-09T09:02:39.790Z,16.90
2023-04-09T09:06:28.887Z,14.40
2023-04-09T09:09:55.472Z,16.60
2023-04-09T09:13:05.036Z,16.40
2023-04-09T09:15:40.554Z,15.10
2023-04-09T09:19:17.678Z,14.40
2023-04-09T09:22:13.445Z,14.70
2023-04-09T09:24:53.709Z,13.90
2023-04-09T09:28:24.338Z,13.90
2023-04-09T09:31:38.179Z,12.80
2023-04-09T09:34:36.916Z,12.70
2023-04-09T09:37:57.696Z,13.20
2023-04-09T09:41:01.912Z,12.90
2023-04-09T09:43:43.109Z,11.90
2023-04-09T09:46:11.785Z,12.50
2023-04-09T09:49:17.004Z,11.10
2023-04-09T09:52:52.708Z,7.90
2023-04-09T09:56:38.390Z,8.00
2023-04-09T09:59:27.131Z,7.50
2023-04-09T10:02:01.572Z,8.30
2023-04-09T10:04:45.792Z,8.10
2023-04-09T10:08:30.393Z,7.70
2023-04-09T10:11:42.792Z,8.10
2023-04-09T10:14:21.077Z,8.10
2023-04-09T10:17:16.078Z,8.40
2023-04-09T10:20:59.987Z,9.20
2023-04-09T10:24:25.439Z,9.10
2023-04-09T10:27:16.207Z,8.40
2023-04-09T10:30:13.312Z,8.40
2023-04-09T10:33:22.563Z,8.10
2023-04-09T10:36:27.889Z,7.90
2023-04-09T10:39:43.320Z,9.00
2023-04-09T10:42:16.172Z,8.60
2023-04-09T10:45:22.465Z,9.40
2023-04-09T10:48:00.421Z,8.40
2023-04-09T10:50:39.566Z,8.60
2023-04-09T10:53:32.687Z,8.50
2023-04-09T10:56:01.485Z,7.90
2023-04-09T10:58:37.527Z,8.30
2023-04-09T11:01:27.397Z,8.20
2023-04-09T11:04:23.618Z,9.00
2023-04-09T11:06:54.509Z,8.10
2023-04-09T11:09:55.337Z,8.00
2023-04-09T11:12:43.096Z,8.10
2023-04-09T11:17:54.352Z,6.90
2023-04-09T11:20:47.536Z,7.50
2023-04-09T11:23:17.817Z,8.00
2023-04-09T11:26:10.040Z,7.70
2023-04-09T11:28:58.384Z,8.50
2023-04-09T11:31:30.410Z,8.10
2023-04-09T11:34:20.692Z,7.80
2023-04-09T11:36:51.495Z,7.90
2023-04-09T11:39:24.956Z,7.60
2023-04-09T11:41:58.644Z,8.10
2023-04-09T11:44:52.394Z,7.90
2023-04-09T11:47:31.881Z,8.00
2023-04-09T11:50:06.308Z,8.00
2023-04-09T11:52:35.837Z,7.90
2023-04-09T11:55:32.367Z,7.90
2023-04-09T11:58:18.477Z,8.10
2023-04-09T12:00:46.154Z,7.20
2023-04-09T12:03:31.036Z,7.70
2023-04-09T12:06:02.760Z,8.20
2023-04-09T12:08:35.530Z,7.60
2023-04-09T12:11:12.637Z,7.20
2023-04-09T12:14:11.394Z,51.20
2023-04-09T12:17:16.128Z,11.90
2023-04-09T12:20:32.368Z,8.00
2023-04-09T12:23:14.517Z,8.60
2023-04-09T12:25:48.272Z,7.70
2023-04-09T12:28:16.859Z,8.40
2023-04-09T12:30:54.099Z,8.40
2023-04-09T12:33:46.576Z,8.00
2023-04-09T12:36:18.258Z,8.90
2023-04-09T12:38:52.180Z,8.80
2023-04-09T12:41:56.340Z,8.40
2023-04-09T12:44:46.892Z,7.90
2023-04-09T12:47:23.006Z,8.20
2023-04-09T12:50:04.905Z,7.70
2023-04-09T12:52:44.359Z,7.70
2023-04-09T12:55:30.642Z,9.00
2023-04-09T12:58:08.726Z,8.30
2023-04-09T13:01:00.406Z,8.40
2023-04-09T13:03:32.396Z,8.70
2023-04-09T13:06:13.059Z,8.50
2023-04-09T13:11:18.526Z,8.10
2023-04-09T13:14:13.482Z,8.90
2023-04-09T13:16:55.269Z,8.20
2023-04-09T13:19:26.905Z,8.80
2023-04-09T13:22:34.357Z,8.20
2023-04-09T13:25:07.121Z,9.20
2023-04-09T13:28:01.049Z,8.60
2023-04-09T13:30:38.694Z,8.70
2023-04-09T13:33:37.161Z,8.10
2023-04-09T13:36:38.937Z,8.80
2023-04-09T13:39:41.096Z,8.90
2023-04-09T13:42:33.157Z,8.40
2023-04-09T13:45:32.255Z,8.90
2023-04-09T13:48:06.554Z,8.50
2023-04-09T13:50:44.211Z,8.00
2023-04-09T13:53:12.161Z,8.00
2023-04-09T13:55:41.233Z,8.20
2023-04-09T13:58:28.730Z,8.50
2023-04-09T14:01:39.489Z,8.50
2023-04-09T14:04:19.436Z,9.00
2023-04-09T14:07:06.698Z,9.20
2023-04-09T14:09:55.087Z,9.80
2023-04-09T14:13:06.612Z,8.60
2023-04-09T14:15:57.479Z,8.70
2023-04-09T14:19:10.426Z,8.20
2023-04-09T14:21:56.825Z,8.30
2023-04-09T14:27:38.641Z,8.40
2023-04-09T14:30:32.354Z,8.30
2023-04-09T14:33:08.106Z,8.90
2023-04-09T14:35:41.084Z,8.60
2023-04-09T14:38:14.908Z,8.60
2023-04-09T14:40:55.443Z,8.60
2023-04-09T14:43:45.572Z,8.50
2023-04-09T14:46:39.712Z,8.10
2023-04-09T14:49:10.848Z,8.10
2023-04-09T14:52:37.023Z,8.20
2023-04-09T14:56:24.601Z,7.80
2023-04-09T14:59:09.729Z,7.90
2023-04-09T15:02:08.376Z,8.40
2023-04-09T15:05:02.141Z,8.40
2023-04-09T15:07:50.547Z,8.60
2023-04-09T15:11:20.032Z,8.40
2023-04-09T15:14:12.285Z,8.50
2023-04-09T15:16:55.887Z,8.60
2023-04-09T15:19:25.979Z,9.10
2023-04-09T15:22:01.723Z,8.70
2023-04-09T15:24:47.652Z,8.90
2023-04-09T15:27:36.756Z,9.50
2023-04-09T15:33:14.680Z,9.00
2023-04-09T15:35:43.929Z,8.80
2023-04-09T15:38:25.230Z,9.40
2023-04-09T15:41:27.021Z,9.90
2023-04-09T15:44:05.146Z,9.10
2023-04-09T15:46:45.870Z,10.40
2023-04-09T15:49:19.618Z,12.10
2023-04-09T15:51:54.176Z,11.60
2023-04-09T15:54:49.673Z,14.10
2023-04-09T15:57:22.182Z,14.50
2023-04-09T15:59:49.778Z,15.90
2023-04-09T16:02:27.179Z,16.40
2023-04-09T16:05:05.286Z,17.30
2023-04-09T16:07:52.260Z,16.90
2023-04-09T16:10:21.993Z,15.90
2023-04-09T16:12:49.960Z,16.90
2023-04-09T16:15:29.278Z,18.20
2023-04-09T16:17:58.089Z,20.60
2023-04-09T16:20:27.005Z,21.00
2023-04-09T16:23:10.741Z,21.00
2023-04-09T16:25:47.724Z,22.70
2023-04-09T16:28:16.608Z,21.70
2023-04-09T16:30:50.089Z,21.70
2023-04-09T16:33:36.967Z,20.30
2023-04-09T16:36:05.262Z,20.70
2023-04-09T16:38:40.024Z,17.70
2023-04-09T16:41:20.037Z,17.00
2023-04-09T16:43:53.077Z,18.40
2023-04-09T16:46:46.105Z,18.10
2023-04-09T16:49:14.145Z,20.20
2023-04-09T16:51:42.239Z,21.90
2023-04-09T16:54:13.048Z,22.60
2023-04-09T16:56:46.086Z,22.20
2023-04-09T16:59:15.565Z,19.50
2023-04-09T17:01:49.099Z,18.50
2023-04-09T17:04:27.020Z,17.20
2023-04-09T17:07:17.705Z,21.00
2023-04-09T17:09:59.201Z,14.80
2023-04-09T17:13:13.772Z,16.30
2023-04-09T17:15:43.342Z,65.70
2023-04-09T17:18:30.291Z,24.90
2023-04-09T17:20:59.434Z,124.70
2023-04-09T17:23:42.811Z,24.00
2023-04-09T17:26:10.392Z,40.20
2023-04-09T17:28:44.471Z,21.70
2023-04-09T17:31:17.762Z,19.80
2023-04-09T17:34:41.685Z,14.40
2023-04-09T17:37:30.972Z,37.00
2023-04-09T17:40:44.316Z,51.40
2023-04-09T17:43:54.723Z,20.00
2023-04-09T17:46:27.131Z,14.70
2023-04-09T17:49:19.361Z,10.90
2023-04-09T17:51:49.790Z,10.20
2023-04-09T17:54:33.625Z,11.20
2023-04-09T17:57:10.960Z,13.80
2023-04-09T17:59:56.968Z,12.60
2023-04-09T18:02:32.990Z,17.40
2023-04-09T18:05:17.815Z,12.40
2023-04-09T18:07:56.859Z,12.50
2023-04-09T18:10:34.271Z,16.00
2023-04-09T18:13:17.659Z,14.50
2023-04-09T18:16:18.187Z,13.90
2023-04-09T18:18:52.364Z,14.20
2023-04-09T18:21:29.790Z,14.80
2023-04-09T18:24:03.781Z,10.70
2023-04-09T18:26:34.935Z,12.00
2023-04-09T18:29:04.579Z,23.20
2023-04-09T18:31:36.488Z,21.30
2023-04-09T18:34:06.788Z,25.00
2023-04-09T18:36:35.573Z,19.50
2023-04-09T18:40:20.354Z,22.70
2023-04-09T18:43:08.803Z,37.90
2023-04-09T18:45:42.847Z,19.20
2023-04-09T18:48:13.290Z,18.00
2023-04-09T18:50:48.469Z,14.50
2023-04-09T18:53:34.214Z,14.70
2023-04-09T18:56:10.022Z,19.80
2023-04-09T18:58:37.262Z,18.40
2023-04-09T19:01:14.379Z,19.50
2023-04-09T19:03:44.881Z,20.90
2023-04-09T19:06:28.009Z,20.80
2023-04-09T19:08:58.365Z,19.10
2023-04-09T19:11:33.635Z,23.50
2023-04-09T19:14:00.719Z,18.70
2023-04-09T19:16:31.596Z,17.60
2023-04-09T19:18:58.853Z,19.70
2023-04-09T19:21:25.963Z,21.10
2023-04-09T19:23:56.277Z,20.00
2023-04-09T19:26:26.636Z,25.70
2023-04-09T19:31:35.642Z,22.90
2023-04-09T19:34:08.264Z,29.00
2023-04-09T19:36:38.316Z,21.10
2023-04-09T19:39:11.021Z,17.80
2023-04-09T19:41:41.560Z,21.80
2023-04-09T19:44:26.044Z,16.10
2023-04-09T19:46:58.070Z,22.20
2023-04-09T19:49:34.655Z,24.40
2023-04-09T19:52:07.156Z,17.70
2023-04-09T19:54:43.404Z,15.50
2023-04-09T19:57:12.827Z,14.00
2023-04-09T20:00:28.667Z,9.30
2023-04-09T20:03:11.345Z,9.30
2023-04-09T20:05:44.069Z,9.40
2023-04-09T20:08:37.088Z,10.10
2023-04-09T20:11:30.634Z,10.90
2023-04-09T20:14:18.109Z,11.70
2023-04-09T20:16:48.903Z,12.30
2023-04-09T20:19:24.245Z,13.40
2023-04-09T20:21:57.126Z,9.90
2023-04-09T20:24:55.533Z,11.40
2023-04-09T20:27:28.406Z,12.00
2023-04-09T20:29:59.693Z,12.90
2023-04-09T20:32:49.006Z,12.90
2023-04-09T20:35:19.416Z,13.00
2023-04-09T20:38:41.605Z,18.00
2023-04-09T20:41:34.138Z,15.30
2023-04-09T20:44:13.120Z,14.80
2023-04-09T20:47:15.539Z,16.80
2023-04-09T20:50:04.464Z,17.00
2023-04-09T20:53:37.052Z,14.10
2023-04-09T20:56:25.498Z,13.90
2023-04-09T21:00:11.664Z,13.50
2023-04-09T21:04:08.980Z,12.70
2023-04-09T21:07:19.734Z,17.30
2023-04-09T21:10:52.749Z,18.00
2023-04-09T21:14:15.418Z,16.70
2023-04-09T21:17:12.132Z,17.00
2023-04-09T21:19:44.757Z,16.30
2023-04-09T21:23:13.736Z,13.90
2023-04-09T21:27:01.727Z,15.90
2023-04-09T21:30:31.331Z,17.80
2023-04-09T21:33:30.225Z,20.50
2023-04-09T21:37:18.360Z,18.10
2023-04-09T21:40:57.263Z,18.50
2023-04-09T21:44:45.670Z,13.10
2023-04-09T21:48:30.629Z,13.90
2023-04-09T21:52:06.513Z,12.30
2023-04-09T21:55:40.667Z,12.40
2023-04-09T21:59:16.522Z,11.40
2023-04-09T22:02:54.013Z,12.70
2023-04-09T22:06:24.274Z,10.50
2023-04-09T22:10:28.311Z,12.20
2023-04-09T22:14:10.057Z,14.10
2023-04-09T22:18:16.746Z,14.90
2023-04-09T22:22:24.891Z,16.30
2023-04-09T22:26:32.982Z,17.70
2023-04-09T22:30:42.673Z,12.60
2023-04-09T22:34:50.751Z,13.70
2023-04-09T22:38:59.896Z,14.40
2023-04-09T22:42:52.688Z,16.20
2023-04-09T22:46:50.423Z,19.20
2023-04-09T22:50:59.313Z,14.20
2023-04-09T22:55:08.566Z,15.50
2023-04-09T22:58:56.459Z,13.90
2023-04-09T23:02:57.625Z,12.10
2023-04-09T23:07:06.899Z,13.10
2023-04-09T23:10:47.233Z,8.70
2023-04-09T23:14:55.028Z,10.20
2023-04-09T23:18:55.840Z,10.20
2023-04-09T23:23:04.329Z,10.00
2023-04-09T23:27:12.524Z,9.00
2023-04-09T23:31:10.866Z,7.50
2023-04-09T23:35:18.974Z,8.10
2023-04-09T23:39:17.581Z,9.40
2023-04-09T23:43:27.804Z,7.50
2023-04-09T23:47:36.790Z,8.20
2023-04-09T23:51:48.053Z,6.10
2023-04-09T23:55:45.291Z,6.30
2023-04-09T23:59:33.474Z,7.50
